Weather at Lindtorp Airport

Public forecast

Using degrees Celsius for public forecast. Weather courtesy of forecast.io.

Closest aviation weather report (METAR) to Lindtorp Airport

Closest report is Karup Airport, 23.5 nm (43.5 km) ESE. Retrieved 2021/01/25 17:20 UTC (0 seconds ago):

EKKA 251720Z AUTO 22004KT 0150 R09R/1000N R27L/0500N FZFG VV001 M01/M01 Q1003 R27L/2///95

Closest aviation forecast (TAF) to Lindtorp Airport

Closest forecast is Karup Airport, 23.5 nm (43.5 km) ESE. Retrieved 2021/01/25 16:23 UTC (43 minutes ago):

TAF COR EKKA 251616Z 2516/2615 VRB03KT 0100 FZFG VV001 TEMPO 2516/2610 5000 MIFG BR FEW001 BECMG 2610/2612 8000 NSW FEW005